createdAt,value
2022-10-17T00:02:11.743Z,66.80
2022-10-17T00:04:38.507Z,66.80
2022-10-17T00:07:05.217Z,66.80
2022-10-17T00:09:31.896Z,66.80
2022-10-17T00:11:58.641Z,66.90
2022-10-17T00:14:25.348Z,67.10
2022-10-17T00:16:52.137Z,67.20
2022-10-17T00:19:18.815Z,66.70
2022-10-17T00:21:45.519Z,66.50
2022-10-17T00:24:12.207Z,66.70
2022-10-17T00:26:38.914Z,66.60
2022-10-17T00:29:05.994Z,66.80
2022-10-17T00:31:32.785Z,66.80
2022-10-17T00:33:59.453Z,66.80
2022-10-17T00:36:26.358Z,66.90
2022-10-17T00:38:57.592Z,66.80
2022-10-17T00:41:26.735Z,66.50
2022-10-17T00:43:53.390Z,67.90
2022-10-17T00:46:20.358Z,68.10
2022-10-17T00:48:47.148Z,68.30
2022-10-17T00:51:13.799Z,68.50
2022-10-17T00:53:40.498Z,67.30
2022-10-17T00:56:07.318Z,67.10
2022-10-17T00:58:34.070Z,67.10
2022-10-17T01:01:00.901Z,68.40
2022-10-17T01:03:27.865Z,68.50
2022-10-17T01:05:54.651Z,68.80
2022-10-17T01:08:21.398Z,69.00
2022-10-17T01:11:03.048Z,69.40
2022-10-17T01:13:50.276Z,69.70
2022-10-17T01:16:32.574Z,69.80
2022-10-17T01:19:07.171Z,68.50
2022-10-17T01:21:53.281Z,68.30
2022-10-17T01:24:28.019Z,68.70
2022-10-17T01:27:13.036Z,68.40
2022-10-17T01:30:19.706Z,68.70
2022-10-17T01:32:49.864Z,68.90
2022-10-17T01:35:45.488Z,69.30
2022-10-17T01:38:14.938Z,69.40
2022-10-17T01:40:54.852Z,69.80
2022-10-17T01:43:29.460Z,70.00
2022-10-17T01:46:00.706Z,70.10
2022-10-17T01:48:31.616Z,69.70
2022-10-17T01:51:13.835Z,69.80
2022-10-17T01:53:47.376Z,69.70
2022-10-17T01:56:14.268Z,69.90
2022-10-17T01:58:50.203Z,70.00
2022-10-17T02:01:16.996Z,70.10
2022-10-17T02:03:44.190Z,70.10
2022-10-17T02:06:10.858Z,70.30
2022-10-17T02:08:46.094Z,70.50
2022-10-17T02:11:18.172Z,70.50
2022-10-17T02:17:14.477Z,70.80
2022-10-17T02:20:05.926Z,70.80
2022-10-17T02:22:40.500Z,70.80
2022-10-17T02:25:15.546Z,71.00
2022-10-17T02:27:50.178Z,71.10
2022-10-17T02:30:34.870Z,71.00
2022-10-17T02:33:25.793Z,70.90
2022-10-17T02:35:54.589Z,71.10
2022-10-17T02:38:21.612Z,71.10
2022-10-17T02:40:49.078Z,71.20
2022-10-17T02:43:15.768Z,71.50
2022-10-17T02:45:42.458Z,71.70
2022-10-17T02:48:12.473Z,71.90
2022-10-17T02:51:18.268Z,71.90
2022-10-17T02:53:48.257Z,71.90
2022-10-17T02:56:17.629Z,71.70
2022-10-17T02:58:52.284Z,71.70
2022-10-17T03:01:19.057Z,71.90
2022-10-17T03:03:45.777Z,72.10
2022-10-17T03:06:12.445Z,72.30
2022-10-17T03:08:39.141Z,72.30
2022-10-17T03:11:05.942Z,72.40
2022-10-17T03:13:34.997Z,72.60
2022-10-17T03:16:06.314Z,72.70
2022-10-17T03:18:33.000Z,72.70
2022-10-17T03:20:59.663Z,72.70
2022-10-17T03:23:26.365Z,72.70
2022-10-17T03:25:53.074Z,72.50
2022-10-17T03:28:19.806Z,72.70
2022-10-17T03:30:46.497Z,72.60
2022-10-17T03:33:13.221Z,72.70
2022-10-17T03:35:40.578Z,72.90
2022-10-17T03:38:07.396Z,73.00
2022-10-17T03:40:34.153Z,73.00
2022-10-17T03:43:00.858Z,73.00
2022-10-17T03:45:28.004Z,73.20
2022-10-17T03:47:54.732Z,73.10
2022-10-17T03:50:21.442Z,73.10
2022-10-17T03:52:48.700Z,73.10
2022-10-17T03:55:15.860Z,73.20
2022-10-17T03:57:44.796Z,73.10
2022-10-17T04:00:12.901Z,73.40
2022-10-17T04:02:39.625Z,73.60
2022-10-17T04:05:06.980Z,73.60
2022-10-17T04:07:33.643Z,73.40
2022-10-17T04:10:00.574Z,73.40
2022-10-17T04:12:27.550Z,73.50
2022-10-17T04:14:54.636Z,73.50
2022-10-17T04:17:21.558Z,73.60
2022-10-17T04:19:49.579Z,73.50
2022-10-17T04:22:16.278Z,73.50
2022-10-17T04:24:42.972Z,73.30
2022-10-17T04:27:09.708Z,74.30
2022-10-17T04:29:36.759Z,73.60
2022-10-17T04:32:03.703Z,73.50
2022-10-17T04:34:30.560Z,73.40
2022-10-17T04:36:57.242Z,73.50
2022-10-17T04:39:23.986Z,73.40
2022-10-17T04:41:50.728Z,73.40
2022-10-17T04:44:17.452Z,73.40
2022-10-17T04:46:44.184Z,73.40
2022-10-17T04:49:10.870Z,73.20
2022-10-17T04:51:37.807Z,73.10
2022-10-17T04:54:04.596Z,73.10
2022-10-17T04:56:31.481Z,73.10
2022-10-17T04:58:59.538Z,73.20
2022-10-17T05:01:26.694Z,74.00
2022-10-17T05:03:53.824Z,73.10
2022-10-17T05:06:22.227Z,73.10
2022-10-17T05:08:49.079Z,73.30
2022-10-17T05:11:26.906Z,73.40
2022-10-17T05:13:54.084Z,73.40
2022-10-17T05:16:21.037Z,73.40
2022-10-17T05:18:53.077Z,73.40
2022-10-17T05:21:20.174Z,73.30
2022-10-17T05:23:46.862Z,73.40
2022-10-17T05:26:13.681Z,73.70
2022-10-17T05:28:40.580Z,73.70
2022-10-17T05:31:08.196Z,73.70
2022-10-17T05:33:35.114Z,73.70
2022-10-17T05:36:02.007Z,73.60
2022-10-17T05:38:28.832Z,73.60
2022-10-17T05:40:59.521Z,73.80
2022-10-17T05:43:26.296Z,73.50
2022-10-17T05:45:53.111Z,73.60
2022-10-17T05:48:20.135Z,74.80
2022-10-17T05:50:46.852Z,74.80
2022-10-17T05:53:13.684Z,74.60
2022-10-17T05:55:40.431Z,74.60
2022-10-17T05:58:07.222Z,74.80
2022-10-17T06:00:33.970Z,74.80
2022-10-17T06:03:00.759Z,74.80
2022-10-17T06:05:27.583Z,74.70
2022-10-17T06:07:57.075Z,74.90
2022-10-17T06:10:26.413Z,74.90
2022-10-17T06:12:53.203Z,74.90
2022-10-17T06:15:19.891Z,74.90
2022-10-17T06:17:46.594Z,74.80
2022-10-17T06:20:13.542Z,75.10
2022-10-17T06:22:40.231Z,75.10
2022-10-17T06:25:07.693Z,75.20
2022-10-17T06:27:34.687Z,75.10
2022-10-17T06:30:01.425Z,73.90
2022-10-17T06:32:28.424Z,73.80
2022-10-17T06:34:55.305Z,73.70
2022-10-17T06:37:22.107Z,73.70
2022-10-17T06:39:48.792Z,73.80
2022-10-17T06:42:15.512Z,73.50
2022-10-17T06:44:42.224Z,73.60
2022-10-17T06:47:09.915Z,73.80
2022-10-17T06:49:37.171Z,73.70
2022-10-17T06:52:03.868Z,73.80
2022-10-17T06:54:30.587Z,73.90
2022-10-17T06:56:57.416Z,73.90
2022-10-17T06:59:24.079Z,73.90
2022-10-17T07:01:50.784Z,74.00
2022-10-17T07:04:17.789Z,74.10
2022-10-17T07:06:44.510Z,74.20
2022-10-17T07:09:11.254Z,74.20
2022-10-17T07:11:38.085Z,74.40
2022-10-17T07:14:04.770Z,74.60
2022-10-17T07:16:31.652Z,74.70
2022-10-17T07:18:58.368Z,74.50
2022-10-17T07:21:25.219Z,74.80
2022-10-17T07:23:51.914Z,74.80
2022-10-17T07:26:18.849Z,74.70
2022-10-17T07:28:46.711Z,74.60
2022-10-17T07:31:17.048Z,74.60
2022-10-17T07:33:43.877Z,74.80
2022-10-17T07:36:10.647Z,74.90
2022-10-17T07:38:37.355Z,74.80
2022-10-17T07:41:05.399Z,74.90
2022-10-17T07:43:32.204Z,74.80
2022-10-17T07:45:59.008Z,74.90
2022-10-17T07:48:25.955Z,75.00
2022-10-17T07:50:52.697Z,74.90
2022-10-17T07:53:19.467Z,74.90
2022-10-17T07:55:47.846Z,75.10
2022-10-17T07:58:14.632Z,75.10
2022-10-17T08:00:41.504Z,74.90
2022-10-17T08:03:08.569Z,75.00
2022-10-17T08:05:35.305Z,74.90
2022-10-17T08:08:01.970Z,75.10
2022-10-17T08:10:29.716Z,75.10
2022-10-17T08:12:57.300Z,75.40
2022-10-17T08:15:27.941Z,75.40
2022-10-17T08:17:57.729Z,75.60
2022-10-17T08:20:24.539Z,75.70
2022-10-17T08:22:54.637Z,75.90
2022-10-17T08:25:21.730Z,75.90
2022-10-17T08:27:48.610Z,76.00
2022-10-17T08:30:15.472Z,76.00
2022-10-17T08:32:42.309Z,76.10
2022-10-17T08:35:09.325Z,76.00
2022-10-17T08:37:36.032Z,76.00
2022-10-17T08:40:02.850Z,76.00
2022-10-17T08:42:35.509Z,76.00
2022-10-17T08:45:07.137Z,76.00
2022-10-17T08:47:39.973Z,76.30
2022-10-17T08:50:28.480Z,76.20
2022-10-17T08:53:19.682Z,76.70
2022-10-17T08:55:47.689Z,76.80
2022-10-17T08:58:15.413Z,76.70
2022-10-17T09:01:03.324Z,77.20
2022-10-17T09:03:55.127Z,76.80
2022-10-17T09:06:29.946Z,76.80
2022-10-17T09:09:14.669Z,76.90
2022-10-17T09:11:56.437Z,76.50
2022-10-17T09:14:45.999Z,76.70
2022-10-17T09:17:12.687Z,76.80
2022-10-17T09:20:03.128Z,77.10
2022-10-17T09:22:34.449Z,76.80
2022-10-17T09:25:06.997Z,76.80
2022-10-17T09:27:46.729Z,76.80
2022-10-17T09:30:44.200Z,76.70
2022-10-17T09:33:42.342Z,77.00
2022-10-17T09:36:17.564Z,77.20
2022-10-17T09:38:48.079Z,77.10
2022-10-17T09:41:42.992Z,77.30
2022-10-17T09:44:23.906Z,77.60
2022-10-17T09:47:08.922Z,77.40
2022-10-17T09:49:37.759Z,76.90
2022-10-17T09:52:06.535Z,77.20
2022-10-17T09:54:50.830Z,76.90
2022-10-17T09:57:18.389Z,76.30
2022-10-17T09:59:57.113Z,76.10
2022-10-17T10:02:25.097Z,75.90
2022-10-17T10:05:03.781Z,75.80
2022-10-17T10:07:33.312Z,76.20
2022-10-17T10:10:00.451Z,75.20
2022-10-17T10:12:31.774Z,75.20
2022-10-17T10:14:58.830Z,75.10
2022-10-17T10:17:35.653Z,74.20
2022-10-17T10:20:03.806Z,74.00
2022-10-17T10:22:30.759Z,74.60
2022-10-17T10:25:27.236Z,75.10
2022-10-17T10:27:54.942Z,75.00
2022-10-17T10:30:27.968Z,73.70
2022-10-17T10:35:39.339Z,72.70
2022-10-17T10:38:12.440Z,71.70
2022-10-17T10:40:55.681Z,71.30
2022-10-17T10:43:45.156Z,71.40
2022-10-17T10:46:21.457Z,70.00
2022-10-17T10:48:55.650Z,68.80
2022-10-17T10:51:38.531Z,68.50
2022-10-17T10:54:18.970Z,68.30
2022-10-17T10:56:56.802Z,67.60
2022-10-17T10:59:26.210Z,67.00
2022-10-17T11:01:55.740Z,66.90
2022-10-17T11:04:34.506Z,66.20
2022-10-17T11:07:10.400Z,66.50
2022-10-17T11:09:46.010Z,65.80
2022-10-17T11:12:22.138Z,64.90
2022-10-17T11:15:02.764Z,64.60
2022-10-17T11:17:38.306Z,64.80
2022-10-17T11:20:17.566Z,64.50
2022-10-17T11:22:48.674Z,64.40
2022-10-17T11:25:28.128Z,64.40
2022-10-17T11:27:54.885Z,64.40
2022-10-17T11:30:21.606Z,63.80
2022-10-17T11:33:06.582Z,63.00
2022-10-17T11:35:38.078Z,62.90
2022-10-17T11:38:42.972Z,62.40
2022-10-17T11:41:13.572Z,62.00
2022-10-17T11:43:54.328Z,62.10
2022-10-17T11:46:23.868Z,61.80
2022-10-17T11:49:05.969Z,60.90
2022-10-17T11:52:00.927Z,61.50
2022-10-17T11:54:34.055Z,60.90
2022-10-17T11:57:32.977Z,60.60
2022-10-17T12:00:20.810Z,59.60
2022-10-17T12:03:07.731Z,59.30
2022-10-17T12:06:00.555Z,58.80
2022-10-17T12:08:45.905Z,59.00
2022-10-17T12:11:34.604Z,58.60
2022-10-17T12:14:05.929Z,58.70
2022-10-17T12:16:36.975Z,58.90
2022-10-17T12:19:06.302Z,58.80
2022-10-17T12:21:56.038Z,58.50
2022-10-17T12:24:43.232Z,58.60
2022-10-17T12:27:28.534Z,58.40
2022-10-17T12:30:02.629Z,57.70
2022-10-17T12:32:36.785Z,57.90
2022-10-17T12:35:19.388Z,57.40
2022-10-17T12:37:46.084Z,56.80
2022-10-17T12:40:37.666Z,56.60
2022-10-17T12:43:13.751Z,56.20
2022-10-17T12:45:56.003Z,56.60
2022-10-17T12:48:37.844Z,56.40
2022-10-17T12:51:34.057Z,56.10
2022-10-17T12:54:07.077Z,55.80
2022-10-17T12:56:43.571Z,55.90
2022-10-17T12:59:24.296Z,55.90
2022-10-17T13:01:55.904Z,55.70
2022-10-17T13:04:22.636Z,55.90
2022-10-17T13:06:54.196Z,56.00
2022-10-17T13:09:35.530Z,55.80
2022-10-17T13:12:04.064Z,55.70
2022-10-17T13:14:31.309Z,55.50
2022-10-17T13:16:59.658Z,55.50
2022-10-17T13:19:29.850Z,55.50
2022-10-17T13:22:06.404Z,55.30
2022-10-17T13:24:38.549Z,55.20
2022-10-17T13:27:06.185Z,55.00
2022-10-17T13:29:33.096Z,54.90
2022-10-17T13:32:01.517Z,54.40
2022-10-17T13:34:28.608Z,54.30
2022-10-17T13:36:56.779Z,54.00
2022-10-17T13:39:38.238Z,54.40
2022-10-17T13:42:36.753Z,53.90
2022-10-17T13:45:04.113Z,53.50
2022-10-17T13:47:37.686Z,53.30
2022-10-17T13:50:09.464Z,52.90
2022-10-17T13:52:43.501Z,53.10
2022-10-17T13:55:17.570Z,53.20
2022-10-17T13:57:44.768Z,53.40
2022-10-17T14:00:18.654Z,53.00
2022-10-17T14:02:45.475Z,52.80
2022-10-17T14:05:18.916Z,52.70
2022-10-17T14:08:11.505Z,52.50
2022-10-17T14:10:40.361Z,52.60
2022-10-17T14:13:10.696Z,52.50
2022-10-17T14:15:37.474Z,52.80
2022-10-17T14:18:08.030Z,52.80
2022-10-17T14:23:34.682Z,52.90
2022-10-17T14:26:14.870Z,52.90
2022-10-17T14:28:42.627Z,53.10
2022-10-17T14:31:35.406Z,53.60
2022-10-17T14:34:02.909Z,54.50
2022-10-17T14:36:39.927Z,54.70
2022-10-17T14:39:13.318Z,55.30
2022-10-17T14:41:43.972Z,55.60
2022-10-17T14:44:26.330Z,55.90
2022-10-17T14:47:05.992Z,56.10
2022-10-17T14:49:40.801Z,56.30
2022-10-17T14:52:33.822Z,56.30
2022-10-17T14:55:12.073Z,56.30
2022-10-17T14:57:43.296Z,56.50
2022-10-17T15:00:17.054Z,56.80
2022-10-17T15:02:44.298Z,56.90
2022-10-17T15:05:13.517Z,56.90
2022-10-17T15:07:40.706Z,57.00
2022-10-17T15:10:10.033Z,56.90
2022-10-17T15:12:36.720Z,57.60
2022-10-17T15:15:03.581Z,56.80
2022-10-17T15:17:31.176Z,56.90
2022-10-17T15:19:58.146Z,56.90
2022-10-17T15:22:25.090Z,57.00
2022-10-17T15:24:51.830Z,57.00
2022-10-17T15:27:20.232Z,57.10
2022-10-17T15:29:47.054Z,57.10
2022-10-17T15:32:14.098Z,57.60
2022-10-17T15:34:40.844Z,57.00
2022-10-17T15:37:07.792Z,57.00
2022-10-17T15:39:34.586Z,57.10
2022-10-17T15:42:01.331Z,57.20
2022-10-17T15:44:28.437Z,57.20
2022-10-17T15:46:55.675Z,57.00
2022-10-17T15:49:22.610Z,57.20
2022-10-17T15:51:55.094Z,57.20
2022-10-17T15:54:21.930Z,57.20
2022-10-17T15:56:53.024Z,57.30
2022-10-17T15:59:33.496Z,57.30
2022-10-17T16:02:00.193Z,57.30
2022-10-17T16:04:27.649Z,57.50
2022-10-17T16:06:54.382Z,57.40
2022-10-17T16:09:21.031Z,58.10
2022-10-17T16:11:47.745Z,57.50
2022-10-17T16:14:15.860Z,57.60
2022-10-17T16:16:42.615Z,57.70
2022-10-17T16:19:09.373Z,57.80
2022-10-17T16:21:38.158Z,57.90
2022-10-17T16:24:05.094Z,58.10
2022-10-17T16:26:31.773Z,58.10
2022-10-17T16:29:02.768Z,58.10
2022-10-17T16:31:31.699Z,58.30
2022-10-17T16:33:59.016Z,58.10
2022-10-17T16:36:25.760Z,58.20
2022-10-17T16:38:54.105Z,58.90
2022-10-17T16:41:26.189Z,58.40
2022-10-17T16:43:55.748Z,58.50
2022-10-17T16:46:23.001Z,58.60
2022-10-17T16:48:49.787Z,58.60
2022-10-17T16:51:18.096Z,58.70
2022-10-17T16:53:45.866Z,58.70
2022-10-17T16:56:15.124Z,58.80
2022-10-17T16:58:42.197Z,58.90
2022-10-17T17:01:19.613Z,58.90
2022-10-17T17:03:47.409Z,59.60
2022-10-17T17:06:22.194Z,59.00
2022-10-17T17:08:48.956Z,59.00
2022-10-17T17:11:16.529Z,59.10
2022-10-17T17:13:43.400Z,59.20
2022-10-17T17:16:14.681Z,59.30
2022-10-17T17:18:41.567Z,59.40
2022-10-17T17:21:09.021Z,59.40
2022-10-17T17:23:36.989Z,59.20
2022-10-17T17:26:05.716Z,59.40
2022-10-17T17:28:32.696Z,59.40
2022-10-17T17:30:59.502Z,59.40
2022-10-17T17:33:26.305Z,59.30
2022-10-17T17:35:57.234Z,59.40
2022-10-17T17:38:24.050Z,59.50
2022-10-17T17:40:51.313Z,59.40
2022-10-17T17:43:18.731Z,59.40
2022-10-17T17:45:45.538Z,59.50
2022-10-17T17:48:12.384Z,59.60
2022-10-17T17:50:39.974Z,59.60
2022-10-17T17:53:07.223Z,59.70
2022-10-17T17:55:34.232Z,59.80
2022-10-17T17:58:00.929Z,59.80
2022-10-17T18:00:27.725Z,59.90
2022-10-17T18:02:54.525Z,59.90
2022-10-17T18:05:21.245Z,60.70
2022-10-17T18:07:48.655Z,59.80
2022-10-17T18:12:42.352Z,59.70
2022-10-17T18:15:09.278Z,59.70
2022-10-17T18:17:36.136Z,59.70
2022-10-17T18:20:03.502Z,59.70
2022-10-17T18:22:30.446Z,59.80
2022-10-17T18:24:57.518Z,59.90
2022-10-17T18:27:24.244Z,59.70
2022-10-17T18:29:51.180Z,59.90
2022-10-17T18:32:18.021Z,59.90
2022-10-17T18:34:44.689Z,59.90
2022-10-17T18:37:11.451Z,60.10
2022-10-17T18:39:38.206Z,60.10
2022-10-17T18:42:05.004Z,60.20
2022-10-17T18:44:31.813Z,60.10
2022-10-17T18:47:03.006Z,60.20
2022-10-17T18:49:31.090Z,60.10
2022-10-17T18:51:59.459Z,60.00
2022-10-17T18:54:26.213Z,60.10
2022-10-17T18:56:54.156Z,60.10
2022-10-17T18:59:21.022Z,60.30
2022-10-17T19:01:47.968Z,60.30
2022-10-17T19:04:14.846Z,60.40
2022-10-17T19:06:41.665Z,60.60
2022-10-17T19:09:09.383Z,60.40
2022-10-17T19:11:36.940Z,60.00
2022-10-17T19:14:05.330Z,60.10
2022-10-17T19:16:34.399Z,60.60
2022-10-17T19:19:03.536Z,60.70
2022-10-17T19:21:30.302Z,60.80
2022-10-17T19:23:59.442Z,60.90
2022-10-17T19:26:27.189Z,60.90
2022-10-17T19:28:54.145Z,60.90
2022-10-17T19:31:26.518Z,61.10
2022-10-17T19:33:53.716Z,60.90
2022-10-17T19:36:21.408Z,61.00
2022-10-17T19:38:48.329Z,61.00
2022-10-17T19:41:15.893Z,61.20
2022-10-17T19:43:44.321Z,61.40
2022-10-17T19:46:12.862Z,61.20
2022-10-17T19:48:39.690Z,61.40
2022-10-17T19:51:07.409Z,61.40
2022-10-17T19:53:34.374Z,61.60
2022-10-17T19:56:01.099Z,61.60
2022-10-17T19:58:28.003Z,62.30
2022-10-17T20:00:57.304Z,62.00
2022-10-17T20:03:24.819Z,62.00
2022-10-17T20:05:51.622Z,61.70
2022-10-17T20:08:18.416Z,62.10
2022-10-17T20:10:46.107Z,61.20
2022-10-17T20:13:13.420Z,61.30
2022-10-17T20:15:40.180Z,61.50
2022-10-17T20:18:07.036Z,61.40
2022-10-17T20:20:36.878Z,61.40
2022-10-17T20:23:03.822Z,61.50
2022-10-17T20:25:30.589Z,61.40
2022-10-17T20:27:57.268Z,61.30
2022-10-17T20:30:23.936Z,61.20
2022-10-17T20:32:55.084Z,61.10
2022-10-17T20:35:22.593Z,61.10
2022-10-17T20:37:49.380Z,61.40
2022-10-17T20:40:34.286Z,61.40
2022-10-17T20:43:01.663Z,61.50
2022-10-17T20:45:43.635Z,61.50
2022-10-17T20:48:15.573Z,61.70
2022-10-17T20:50:42.704Z,61.70
2022-10-17T20:53:35.013Z,62.10
2022-10-17T20:56:07.795Z,61.90
2022-10-17T20:58:34.616Z,61.20
2022-10-17T21:01:08.864Z,61.40
2022-10-17T21:03:42.372Z,61.60
2022-10-17T21:06:12.459Z,62.00
2022-10-17T21:08:39.168Z,62.30
2022-10-17T21:11:19.868Z,62.20
2022-10-17T21:13:46.868Z,62.30
2022-10-17T21:16:16.451Z,62.00
2022-10-17T21:18:43.529Z,62.20
2022-10-17T21:21:15.206Z,62.30
2022-10-17T21:23:43.776Z,62.40
2022-10-17T21:26:12.582Z,62.40
2022-10-17T21:28:40.160Z,62.50
2022-10-17T21:31:21.460Z,62.40
2022-10-17T21:33:50.178Z,62.50
2022-10-17T21:36:17.178Z,62.50
2022-10-17T21:38:47.471Z,62.50
2022-10-17T21:41:15.153Z,62.50
2022-10-17T21:43:42.807Z,62.40
2022-10-17T21:46:16.453Z,62.30
2022-10-17T21:48:43.737Z,61.80
2022-10-17T21:51:12.441Z,61.80
2022-10-17T21:53:39.189Z,61.80
2022-10-17T21:56:07.616Z,62.00
2022-10-17T21:58:34.544Z,62.10
2022-10-17T22:01:05.488Z,63.40
2022-10-17T22:03:36.517Z,62.80
2022-10-17T22:06:19.457Z,63.10
2022-10-17T22:08:50.753Z,62.80
2022-10-17T22:11:20.467Z,62.80
2022-10-17T22:13:47.153Z,62.80
2022-10-17T22:16:15.166Z,62.70
2022-10-17T22:18:42.527Z,62.50
2022-10-17T22:21:14.309Z,62.40
2022-10-17T22:23:42.176Z,62.70
2022-10-17T22:26:09.069Z,62.70
2022-10-17T22:28:36.014Z,62.70
2022-10-17T22:31:02.897Z,62.60
2022-10-17T22:33:31.902Z,62.70
2022-10-17T22:35:58.692Z,62.80
2022-10-17T22:38:25.401Z,62.90
2022-10-17T22:40:52.080Z,62.90
2022-10-17T22:43:18.823Z,62.80
2022-10-17T22:45:55.155Z,62.90
2022-10-17T22:48:22.308Z,63.00
2022-10-17T22:50:49.603Z,63.00
2022-10-17T22:53:23.731Z,62.90
2022-10-17T22:55:54.162Z,62.50
2022-10-17T22:58:21.202Z,62.70
2022-10-17T23:00:48.716Z,62.70
2022-10-17T23:03:15.485Z,62.80
2022-10-17T23:05:42.244Z,63.00
2022-10-17T23:08:09.004Z,62.70
2022-10-17T23:10:35.818Z,62.60
2022-10-17T23:13:02.948Z,62.80
2022-10-17T23:15:31.254Z,62.80
2022-10-17T23:17:58.434Z,62.80
2022-10-17T23:20:25.253Z,62.80
2022-10-17T23:22:51.983Z,62.80
2022-10-17T23:25:18.848Z,63.00
2022-10-17T23:27:45.701Z,63.10
2022-10-17T23:30:12.614Z,63.00
2022-10-17T23:32:39.924Z,62.80
2022-10-17T23:35:06.895Z,62.80
2022-10-17T23:37:33.924Z,62.80
2022-10-17T23:40:00.682Z,62.70
2022-10-17T23:42:27.478Z,63.00
2022-10-17T23:44:54.156Z,64.70
2022-10-17T23:47:20.868Z,64.50
2022-10-17T23:49:47.569Z,64.40
2022-10-17T23:52:14.291Z,64.30
2022-10-17T23:57:08.689Z,64.00
2022-10-17T23:59:35.420Z,64.20
